sensor_id;sensor_type;location;lat;lon;timestamp;P1;durP1;ratioP1;P2;durP2;ratioP2
74974;SDS011;68459;50.836;19.138;2023-08-31T00:00:48;4.15;;;3.10;;
74974;SDS011;68459;50.836;19.138;2023-08-31T00:04:04;4.03;;;2.80;;
74974;SDS011;68459;50.836;19.138;2023-08-31T00:07:10;5.87;;;3.10;;
74974;SDS011;68459;50.836;19.138;2023-08-31T00:10:14;4.28;;;2.78;;
74974;SDS011;68459;50.836;19.138;2023-08-31T00:13:20;4.25;;;2.60;;
74974;SDS011;68459;50.836;19.138;2023-08-31T00:16:24;5.10;;;3.10;;
74974;SDS011;68459;50.836;19.138;2023-08-31T00:19:28;4.60;;;2.58;;
74974;SDS011;68459;50.836;19.138;2023-08-31T00:22:32;3.92;;;2.75;;
74974;SDS011;68459;50.836;19.138;2023-08-31T00:25:36;4.93;;;3.17;;
74974;SDS011;68459;50.836;19.138;2023-08-31T00:28:42;5.40;;;3.23;;
74974;SDS011;68459;50.836;19.138;2023-08-31T00:31:48;6.60;;;3.00;;
74974;SDS011;68459;50.836;19.138;2023-08-31T00:34:53;5.80;;;3.17;;
74974;SDS011;68459;50.836;19.138;2023-08-31T00:37:58;5.00;;;3.20;;
74974;SDS011;68459;50.836;19.138;2023-08-31T00:41:03;5.50;;;3.38;;
74974;SDS011;68459;50.836;19.138;2023-08-31T00:44:09;9.32;;;3.70;;
74974;SDS011;68459;50.836;19.138;2023-08-31T00:47:12;6.50;;;3.65;;
74974;SDS011;68459;50.836;19.138;2023-08-31T00:50:16;5.93;;;3.75;;
74974;SDS011;68459;50.836;19.138;2023-08-31T00:53:21;8.43;;;4.00;;
74974;SDS011;68459;50.836;19.138;2023-08-31T00:56:28;5.13;;;3.55;;
74974;SDS011;68459;50.836;19.138;2023-08-31T00:59:33;6.87;;;3.77;;
74974;SDS011;68459;50.836;19.138;2023-08-31T01:02:40;7.20;;;3.42;;
74974;SDS011;68459;50.836;19.138;2023-08-31T01:05:58;6.32;;;3.90;;
74974;SDS011;68459;50.836;19.138;2023-08-31T01:09:14;6.53;;;4.07;;
74974;SDS011;68459;50.836;19.138;2023-08-31T01:12:29;6.55;;;3.63;;
74974;SDS011;68459;50.836;19.138;2023-08-31T01:15:45;7.35;;;3.83;;
74974;SDS011;68459;50.836;19.138;2023-08-31T01:18:55;5.88;;;3.83;;
74974;SDS011;68459;50.836;19.138;2023-08-31T01:22:03;6.57;;;3.60;;
74974;SDS011;68459;50.836;19.138;2023-08-31T01:25:14;6.40;;;3.55;;
74974;SDS011;68459;50.836;19.138;2023-08-31T01:28:19;5.13;;;3.55;;
74974;SDS011;68459;50.836;19.138;2023-08-31T01:31:23;7.67;;;4.13;;
74974;SDS011;68459;50.836;19.138;2023-08-31T01:34:27;5.97;;;3.80;;
74974;SDS011;68459;50.836;19.138;2023-08-31T01:37:33;5.75;;;3.75;;
74974;SDS011;68459;50.836;19.138;2023-08-31T01:40:47;6.07;;;4.10;;
74974;SDS011;68459;50.836;19.138;2023-08-31T01:43:59;8.55;;;3.80;;
74974;SDS011;68459;50.836;19.138;2023-08-31T01:47:05;5.90;;;3.70;;
74974;SDS011;68459;50.836;19.138;2023-08-31T01:50:10;5.45;;;3.20;;
74974;SDS011;68459;50.836;19.138;2023-08-31T01:53:14;4.57;;;3.13;;
74974;SDS011;68459;50.836;19.138;2023-08-31T01:56:20;5.70;;;2.83;;
74974;SDS011;68459;50.836;19.138;2023-08-31T01:59:24;6.78;;;3.75;;
74974;SDS011;68459;50.836;19.138;2023-08-31T02:02:28;9.20;;;5.10;;
74974;SDS011;68459;50.836;19.138;2023-08-31T02:05:31;5.43;;;3.45;;
74974;SDS011;68459;50.836;19.138;2023-08-31T02:08:36;5.40;;;2.80;;
74974;SDS011;68459;50.836;19.138;2023-08-31T02:11:41;4.93;;;3.50;;
74974;SDS011;68459;50.836;19.138;2023-08-31T02:14:47;5.75;;;3.38;;
74974;SDS011;68459;50.836;19.138;2023-08-31T02:17:52;4.90;;;3.15;;
74974;SDS011;68459;50.836;19.138;2023-08-31T02:20:57;5.55;;;3.40;;
74974;SDS011;68459;50.836;19.138;2023-08-31T02:24:01;5.10;;;3.40;;
74974;SDS011;68459;50.836;19.138;2023-08-31T02:27:08;6.68;;;3.70;;
74974;SDS011;68459;50.836;19.138;2023-08-31T02:30:12;9.07;;;3.05;;
74974;SDS011;68459;50.836;19.138;2023-08-31T02:33:16;5.93;;;3.33;;
74974;SDS011;68459;50.836;19.138;2023-08-31T02:36:21;5.20;;;3.22;;
74974;SDS011;68459;50.836;19.138;2023-08-31T02:39:25;4.72;;;3.28;;
74974;SDS011;68459;50.836;19.138;2023-08-31T02:42:30;5.27;;;3.60;;
74974;SDS011;68459;50.836;19.138;2023-08-31T02:45:34;5.00;;;3.05;;
74974;SDS011;68459;50.836;19.138;2023-08-31T02:48:38;7.32;;;3.60;;
74974;SDS011;68459;50.836;19.138;2023-08-31T02:51:42;4.93;;;3.50;;
74974;SDS011;68459;50.836;19.138;2023-08-31T02:54:47;5.93;;;3.47;;
74974;SDS011;68459;50.836;19.138;2023-08-31T02:57:52;4.82;;;3.20;;
74974;SDS011;68459;50.836;19.138;2023-08-31T03:01:05;5.60;;;3.33;;
74974;SDS011;68459;50.836;19.138;2023-08-31T03:04:16;7.23;;;3.43;;
74974;SDS011;68459;50.836;19.138;2023-08-31T03:07:20;6.97;;;3.58;;
74974;SDS011;68459;50.836;19.138;2023-08-31T03:10:24;5.93;;;3.50;;
74974;SDS011;68459;50.836;19.138;2023-08-31T03:13:30;5.63;;;3.77;;
74974;SDS011;68459;50.836;19.138;2023-08-31T03:16:34;6.93;;;3.92;;
74974;SDS011;68459;50.836;19.138;2023-08-31T03:19:38;7.72;;;3.88;;
74974;SDS011;68459;50.836;19.138;2023-08-31T03:22:42;5.65;;;3.80;;
74974;SDS011;68459;50.836;19.138;2023-08-31T03:25:46;7.03;;;3.70;;
74974;SDS011;68459;50.836;19.138;2023-08-31T03:28:51;5.68;;;3.60;;
74974;SDS011;68459;50.836;19.138;2023-08-31T03:31:55;6.60;;;3.63;;
74974;SDS011;68459;50.836;19.138;2023-08-31T03:34:59;6.90;;;4.50;;
74974;SDS011;68459;50.836;19.138;2023-08-31T03:38:05;6.50;;;3.97;;
74974;SDS011;68459;50.836;19.138;2023-08-31T03:41:10;6.95;;;4.57;;
74974;SDS011;68459;50.836;19.138;2023-08-31T03:44:15;7.30;;;4.53;;
74974;SDS011;68459;50.836;19.138;2023-08-31T03:47:19;7.03;;;4.55;;
74974;SDS011;68459;50.836;19.138;2023-08-31T03:50:24;8.85;;;4.75;;
74974;SDS011;68459;50.836;19.138;2023-08-31T03:53:28;8.07;;;4.50;;
74974;SDS011;68459;50.836;19.138;2023-08-31T03:56:33;7.75;;;5.03;;
74974;SDS011;68459;50.836;19.138;2023-08-31T03:59:39;8.43;;;4.72;;
74974;SDS011;68459;50.836;19.138;2023-08-31T04:02:43;8.60;;;4.70;;
74974;SDS011;68459;50.836;19.138;2023-08-31T04:05:53;7.97;;;4.60;;
74974;SDS011;68459;50.836;19.138;2023-08-31T04:08:57;9.75;;;4.80;;
74974;SDS011;68459;50.836;19.138;2023-08-31T04:12:01;10.90;;;4.75;;
74974;SDS011;68459;50.836;19.138;2023-08-31T04:15:08;9.53;;;4.73;;
74974;SDS011;68459;50.836;19.138;2023-08-31T04:18:13;8.43;;;5.20;;
74974;SDS011;68459;50.836;19.138;2023-08-31T04:21:17;9.77;;;5.07;;
74974;SDS011;68459;50.836;19.138;2023-08-31T04:24:21;9.35;;;5.28;;
74974;SDS011;68459;50.836;19.138;2023-08-31T04:27:25;9.20;;;4.75;;
74974;SDS011;68459;50.836;19.138;2023-08-31T04:30:31;9.52;;;5.00;;
74974;SDS011;68459;50.836;19.138;2023-08-31T04:33:34;8.82;;;5.30;;
74974;SDS011;68459;50.836;19.138;2023-08-31T04:36:41;10.17;;;5.10;;
74974;SDS011;68459;50.836;19.138;2023-08-31T04:39:45;10.63;;;5.57;;
74974;SDS011;68459;50.836;19.138;2023-08-31T04:42:48;8.00;;;5.10;;
74974;SDS011;68459;50.836;19.138;2023-08-31T04:45:54;9.83;;;5.43;;
74974;SDS011;68459;50.836;19.138;2023-08-31T04:48:58;6.90;;;4.78;;
74974;SDS011;68459;50.836;19.138;2023-08-31T04:52:03;8.88;;;4.70;;
74974;SDS011;68459;50.836;19.138;2023-08-31T04:55:08;8.05;;;5.30;;
74974;SDS011;68459;50.836;19.138;2023-08-31T04:58:13;8.73;;;5.35;;
74974;SDS011;68459;50.836;19.138;2023-08-31T05:01:18;10.63;;;5.63;;
74974;SDS011;68459;50.836;19.138;2023-08-31T05:04:22;9.98;;;5.35;;
74974;SDS011;68459;50.836;19.138;2023-08-31T05:07:26;6.70;;;4.70;;
74974;SDS011;68459;50.836;19.138;2023-08-31T05:10:30;8.50;;;5.00;;
74974;SDS011;68459;50.836;19.138;2023-08-31T05:13:34;7.72;;;4.97;;
74974;SDS011;68459;50.836;19.138;2023-08-31T05:16:41;5.87;;;4.23;;
74974;SDS011;68459;50.836;19.138;2023-08-31T05:19:44;9.95;;;3.90;;
74974;SDS011;68459;50.836;19.138;2023-08-31T05:22:49;5.53;;;3.90;;
74974;SDS011;68459;50.836;19.138;2023-08-31T05:25:53;7.75;;;3.83;;
74974;SDS011;68459;50.836;19.138;2023-08-31T05:28:58;6.57;;;3.58;;
74974;SDS011;68459;50.836;19.138;2023-08-31T05:32:04;6.90;;;3.60;;
74974;SDS011;68459;50.836;19.138;2023-08-31T05:35:08;7.38;;;3.45;;
74974;SDS011;68459;50.836;19.138;2023-08-31T05:38:12;7.37;;;3.67;;
74974;SDS011;68459;50.836;19.138;2023-08-31T05:41:16;5.45;;;2.97;;
74974;SDS011;68459;50.836;19.138;2023-08-31T05:44:19;6.88;;;3.00;;
74974;SDS011;68459;50.836;19.138;2023-08-31T05:47:25;6.10;;;3.03;;
74974;SDS011;68459;50.836;19.138;2023-08-31T05:50:29;5.72;;;2.90;;
74974;SDS011;68459;50.836;19.138;2023-08-31T05:53:33;5.32;;;3.15;;
74974;SDS011;68459;50.836;19.138;2023-08-31T05:56:37;6.80;;;3.28;;
74974;SDS011;68459;50.836;19.138;2023-08-31T05:59:42;5.13;;;2.72;;
74974;SDS011;68459;50.836;19.138;2023-08-31T06:02:47;5.22;;;2.85;;
74974;SDS011;68459;50.836;19.138;2023-08-31T06:05:51;6.13;;;2.53;;
74974;SDS011;68459;50.836;19.138;2023-08-31T06:08:55;6.17;;;2.83;;
74974;SDS011;68459;50.836;19.138;2023-08-31T06:12:00;5.43;;;2.60;;
74974;SDS011;68459;50.836;19.138;2023-08-31T06:15:05;5.57;;;2.70;;
74974;SDS011;68459;50.836;19.138;2023-08-31T06:18:11;4.63;;;2.60;;
74974;SDS011;68459;50.836;19.138;2023-08-31T06:21:15;3.83;;;2.40;;
74974;SDS011;68459;50.836;19.138;2023-08-31T06:24:19;4.78;;;3.03;;
74974;SDS011;68459;50.836;19.138;2023-08-31T06:27:22;6.57;;;2.63;;
74974;SDS011;68459;50.836;19.138;2023-08-31T06:30:26;7.93;;;3.27;;
74974;SDS011;68459;50.836;19.138;2023-08-31T06:33:32;4.38;;;3.00;;
74974;SDS011;68459;50.836;19.138;2023-08-31T06:36:35;6.50;;;3.10;;
74974;SDS011;68459;50.836;19.138;2023-08-31T06:39:39;5.25;;;3.03;;
74974;SDS011;68459;50.836;19.138;2023-08-31T06:42:43;6.13;;;2.50;;
74974;SDS011;68459;50.836;19.138;2023-08-31T06:45:47;4.65;;;2.55;;
74974;SDS011;68459;50.836;19.138;2023-08-31T06:48:52;7.00;;;2.83;;
74974;SDS011;68459;50.836;19.138;2023-08-31T06:51:56;5.90;;;2.90;;
74974;SDS011;68459;50.836;19.138;2023-08-31T06:55:00;7.15;;;2.90;;
74974;SDS011;68459;50.836;19.138;2023-08-31T06:58:04;6.88;;;3.28;;
74974;SDS011;68459;50.836;19.138;2023-08-31T07:01:08;5.28;;;3.22;;
74974;SDS011;68459;50.836;19.138;2023-08-31T07:04:13;5.80;;;3.00;;
74974;SDS011;68459;50.836;19.138;2023-08-31T07:07:18;5.07;;;3.33;;
74974;SDS011;68459;50.836;19.138;2023-08-31T07:10:21;5.28;;;2.63;;
74974;SDS011;68459;50.836;19.138;2023-08-31T07:13:27;5.78;;;3.00;;
74974;SDS011;68459;50.836;19.138;2023-08-31T07:16:30;4.67;;;2.90;;
74974;SDS011;68459;50.836;19.138;2023-08-31T07:19:36;4.47;;;2.35;;
74974;SDS011;68459;50.836;19.138;2023-08-31T07:22:40;5.07;;;2.60;;
74974;SDS011;68459;50.836;19.138;2023-08-31T07:25:45;3.80;;;2.40;;
74974;SDS011;68459;50.836;19.138;2023-08-31T07:28:48;5.03;;;2.15;;
74974;SDS011;68459;50.836;19.138;2023-08-31T07:31:52;3.38;;;2.00;;
74974;SDS011;68459;50.836;19.138;2023-08-31T07:34:57;5.30;;;2.17;;
74974;SDS011;68459;50.836;19.138;2023-08-31T07:38:01;4.37;;;1.80;;
74974;SDS011;68459;50.836;19.138;2023-08-31T07:41:05;4.22;;;1.95;;
74974;SDS011;68459;50.836;19.138;2023-08-31T07:44:09;2.60;;;1.80;;
74974;SDS011;68459;50.836;19.138;2023-08-31T07:47:13;5.60;;;2.28;;
74974;SDS011;68459;50.836;19.138;2023-08-31T07:50:18;3.13;;;1.67;;
74974;SDS011;68459;50.836;19.138;2023-08-31T07:53:21;3.20;;;2.00;;
74974;SDS011;68459;50.836;19.138;2023-08-31T07:56:26;4.10;;;1.80;;
74974;SDS011;68459;50.836;19.138;2023-08-31T07:59:29;2.33;;;1.50;;
74974;SDS011;68459;50.836;19.138;2023-08-31T08:02:33;7.15;;;2.47;;
74974;SDS011;68459;50.836;19.138;2023-08-31T08:05:40;3.35;;;1.80;;
74974;SDS011;68459;50.836;19.138;2023-08-31T08:08:44;3.40;;;1.88;;
74974;SDS011;68459;50.836;19.138;2023-08-31T08:11:48;5.53;;;1.90;;
74974;SDS011;68459;50.836;19.138;2023-08-31T08:14:52;2.47;;;1.58;;
74974;SDS011;68459;50.836;19.138;2023-08-31T08:17:56;2.90;;;1.75;;
74974;SDS011;68459;50.836;19.138;2023-08-31T08:21:02;3.08;;;1.55;;
74974;SDS011;68459;50.836;19.138;2023-08-31T08:24:06;2.90;;;1.47;;
74974;SDS011;68459;50.836;19.138;2023-08-31T08:27:10;2.40;;;1.40;;
74974;SDS011;68459;50.836;19.138;2023-08-31T08:30:14;2.60;;;1.40;;
74974;SDS011;68459;50.836;19.138;2023-08-31T08:33:18;2.85;;;1.60;;
74974;SDS011;68459;50.836;19.138;2023-08-31T08:36:23;2.77;;;1.57;;
74974;SDS011;68459;50.836;19.138;2023-08-31T08:39:27;5.75;;;1.67;;
74974;SDS011;68459;50.836;19.138;2023-08-31T08:42:35;2.33;;;1.50;;
74974;SDS011;68459;50.836;19.138;2023-08-31T08:45:44;2.10;;;1.50;;
74974;SDS011;68459;50.836;19.138;2023-08-31T08:48:51;2.60;;;1.65;;
74974;SDS011;68459;50.836;19.138;2023-08-31T08:51:57;2.05;;;1.23;;
74974;SDS011;68459;50.836;19.138;2023-08-31T08:55:01;2.55;;;1.40;;
74974;SDS011;68459;50.836;19.138;2023-08-31T08:58:07;2.47;;;1.30;;
74974;SDS011;68459;50.836;19.138;2023-08-31T09:01:11;2.45;;;1.40;;
74974;SDS011;68459;50.836;19.138;2023-08-31T09:04:16;3.80;;;1.70;;
74974;SDS011;68459;50.836;19.138;2023-08-31T09:07:21;3.78;;;1.65;;
74974;SDS011;68459;50.836;19.138;2023-08-31T09:10:30;2.58;;;1.60;;
74974;SDS011;68459;50.836;19.138;2023-08-31T09:13:38;2.75;;;1.45;;
74974;SDS011;68459;50.836;19.138;2023-08-31T09:16:44;2.20;;;1.42;;
74974;SDS011;68459;50.836;19.138;2023-08-31T09:19:57;2.53;;;1.50;;
74974;SDS011;68459;50.836;19.138;2023-08-31T09:23:04;2.25;;;1.52;;
74974;SDS011;68459;50.836;19.138;2023-08-31T09:26:12;2.50;;;1.70;;
74974;SDS011;68459;50.836;19.138;2023-08-31T09:29:16;2.60;;;1.88;;
74974;SDS011;68459;50.836;19.138;2023-08-31T09:32:20;2.40;;;1.50;;
74974;SDS011;68459;50.836;19.138;2023-08-31T09:35:24;3.07;;;1.70;;
74974;SDS011;68459;50.836;19.138;2023-08-31T09:38:31;3.25;;;1.40;;
74974;SDS011;68459;50.836;19.138;2023-08-31T09:41:35;2.97;;;1.63;;
74974;SDS011;68459;50.836;19.138;2023-08-31T09:44:42;3.45;;;1.55;;
74974;SDS011;68459;50.836;19.138;2023-08-31T09:47:48;2.30;;;1.52;;
74974;SDS011;68459;50.836;19.138;2023-08-31T09:50:52;2.30;;;1.57;;
74974;SDS011;68459;50.836;19.138;2023-08-31T09:54:00;3.50;;;1.52;;
74974;SDS011;68459;50.836;19.138;2023-08-31T09:57:07;3.20;;;1.40;;
74974;SDS011;68459;50.836;19.138;2023-08-31T10:00:12;3.75;;;1.70;;
74974;SDS011;68459;50.836;19.138;2023-08-31T10:03:17;2.28;;;1.40;;
74974;SDS011;68459;50.836;19.138;2023-08-31T10:06:22;5.20;;;1.67;;
74974;SDS011;68459;50.836;19.138;2023-08-31T10:09:27;3.22;;;1.70;;
74974;SDS011;68459;50.836;19.138;2023-08-31T10:12:31;2.72;;;1.80;;
74974;SDS011;68459;50.836;19.138;2023-08-31T10:15:37;2.55;;;1.70;;
74974;SDS011;68459;50.836;19.138;2023-08-31T10:18:41;2.80;;;1.73;;
74974;SDS011;68459;50.836;19.138;2023-08-31T10:21:45;2.43;;;1.57;;
74974;SDS011;68459;50.836;19.138;2023-08-31T10:25:00;2.67;;;1.70;;
74974;SDS011;68459;50.836;19.138;2023-08-31T10:28:16;2.35;;;1.73;;
74974;SDS011;68459;50.836;19.138;2023-08-31T10:31:21;2.22;;;1.70;;
74974;SDS011;68459;50.836;19.138;2023-08-31T10:34:34;2.83;;;1.80;;
74974;SDS011;68459;50.836;19.138;2023-08-31T10:37:39;8.10;;;4.77;;
74974;SDS011;68459;50.836;19.138;2023-08-31T10:44:19;2.53;;;1.60;;
74974;SDS011;68459;50.836;19.138;2023-08-31T10:47:35;3.50;;;1.90;;
74974;SDS011;68459;50.836;19.138;2023-08-31T10:50:44;2.45;;;1.80;;
74974;SDS011;68459;50.836;19.138;2023-08-31T10:53:50;3.33;;;2.00;;
74974;SDS011;68459;50.836;19.138;2023-08-31T10:56:55;3.22;;;1.65;;
74974;SDS011;68459;50.836;19.138;2023-08-31T11:00:09;4.30;;;1.98;;
74974;SDS011;68459;50.836;19.138;2023-08-31T11:03:15;3.60;;;2.17;;
74974;SDS011;68459;50.836;19.138;2023-08-31T11:06:19;3.10;;;1.77;;
74974;SDS011;68459;50.836;19.138;2023-08-31T11:09:26;4.50;;;1.92;;
74974;SDS011;68459;50.836;19.138;2023-08-31T11:12:31;4.80;;;1.90;;
74974;SDS011;68459;50.836;19.138;2023-08-31T11:15:37;2.90;;;1.80;;
74974;SDS011;68459;50.836;19.138;2023-08-31T11:18:49;3.23;;;1.90;;
74974;SDS011;68459;50.836;19.138;2023-08-31T11:21:53;2.78;;;1.70;;
74974;SDS011;68459;50.836;19.138;2023-08-31T11:24:58;2.72;;;1.70;;
74974;SDS011;68459;50.836;19.138;2023-08-31T11:28:03;4.10;;;1.92;;
74974;SDS011;68459;50.836;19.138;2023-08-31T11:31:10;2.22;;;1.40;;
74974;SDS011;68459;50.836;19.138;2023-08-31T11:34:14;3.67;;;1.60;;
74974;SDS011;68459;50.836;19.138;2023-08-31T11:37:20;3.25;;;1.75;;
74974;SDS011;68459;50.836;19.138;2023-08-31T11:40:25;2.83;;;1.30;;
74974;SDS011;68459;50.836;19.138;2023-08-31T11:43:30;2.38;;;1.60;;
74974;SDS011;68459;50.836;19.138;2023-08-31T11:46:35;2.83;;;1.55;;
74974;SDS011;68459;50.836;19.138;2023-08-31T11:49:39;2.23;;;1.37;;
74974;SDS011;68459;50.836;19.138;2023-08-31T11:52:43;2.65;;;1.50;;
74974;SDS011;68459;50.836;19.138;2023-08-31T11:55:51;2.17;;;1.50;;
74974;SDS011;68459;50.836;19.138;2023-08-31T11:58:55;1.63;;;1.08;;
74974;SDS011;68459;50.836;19.138;2023-08-31T12:02:08;3.50;;;1.50;;
74974;SDS011;68459;50.836;19.138;2023-08-31T12:05:12;2.30;;;1.43;;
74974;SDS011;68459;50.836;19.138;2023-08-31T12:08:16;4.55;;;1.60;;
74974;SDS011;68459;50.836;19.138;2023-08-31T12:11:27;2.70;;;1.80;;
74974;SDS011;68459;50.836;19.138;2023-08-31T12:14:31;3.72;;;1.70;;
74974;SDS011;68459;50.836;19.138;2023-08-31T12:17:38;3.25;;;1.85;;
74974;SDS011;68459;50.836;19.138;2023-08-31T12:20:43;4.23;;;1.70;;
74974;SDS011;68459;50.836;19.138;2023-08-31T12:23:47;3.78;;;1.80;;
74974;SDS011;68459;50.836;19.138;2023-08-31T12:26:51;3.45;;;1.80;;
74974;SDS011;68459;50.836;19.138;2023-08-31T12:29:56;2.78;;;1.60;;
74974;SDS011;68459;50.836;19.138;2023-08-31T12:33:02;3.55;;;2.00;;
74974;SDS011;68459;50.836;19.138;2023-08-31T12:36:06;2.40;;;1.90;;
74974;SDS011;68459;50.836;19.138;2023-08-31T12:39:11;3.53;;;1.70;;
74974;SDS011;68459;50.836;19.138;2023-08-31T12:42:15;3.08;;;1.80;;
74974;SDS011;68459;50.836;19.138;2023-08-31T12:45:25;3.08;;;1.90;;
74974;SDS011;68459;50.836;19.138;2023-08-31T12:48:30;2.70;;;1.73;;
74974;SDS011;68459;50.836;19.138;2023-08-31T12:51:34;3.57;;;1.97;;
74974;SDS011;68459;50.836;19.138;2023-08-31T12:54:38;2.78;;;1.88;;
74974;SDS011;68459;50.836;19.138;2023-08-31T12:57:42;2.53;;;1.60;;
74974;SDS011;68459;50.836;19.138;2023-08-31T13:00:46;2.53;;;1.77;;
74974;SDS011;68459;50.836;19.138;2023-08-31T13:03:54;3.67;;;1.88;;
74974;SDS011;68459;50.836;19.138;2023-08-31T13:06:57;3.70;;;2.20;;
74974;SDS011;68459;50.836;19.138;2023-08-31T13:10:02;2.38;;;1.88;;
74974;SDS011;68459;50.836;19.138;2023-08-31T13:13:07;2.60;;;1.80;;
74974;SDS011;68459;50.836;19.138;2023-08-31T13:16:12;2.97;;;2.10;;
74974;SDS011;68459;50.836;19.138;2023-08-31T13:19:17;3.88;;;1.75;;
74974;SDS011;68459;50.836;19.138;2023-08-31T13:22:21;2.83;;;1.93;;
74974;SDS011;68459;50.836;19.138;2023-08-31T13:25:26;5.88;;;2.50;;
74974;SDS011;68459;50.836;19.138;2023-08-31T13:28:29;6.50;;;2.17;;
74974;SDS011;68459;50.836;19.138;2023-08-31T13:31:34;3.35;;;2.13;;
74974;SDS011;68459;50.836;19.138;2023-08-31T13:34:39;3.83;;;2.38;;
74974;SDS011;68459;50.836;19.138;2023-08-31T13:37:43;4.73;;;2.30;;
74974;SDS011;68459;50.836;19.138;2023-08-31T13:40:47;4.70;;;2.50;;
74974;SDS011;68459;50.836;19.138;2023-08-31T13:43:51;3.28;;;2.17;;
74974;SDS011;68459;50.836;19.138;2023-08-31T13:46:55;5.38;;;2.40;;
74974;SDS011;68459;50.836;19.138;2023-08-31T13:50:00;3.28;;;2.15;;
74974;SDS011;68459;50.836;19.138;2023-08-31T13:53:06;3.73;;;2.40;;
74974;SDS011;68459;50.836;19.138;2023-08-31T13:56:09;3.67;;;2.17;;
74974;SDS011;68459;50.836;19.138;2023-08-31T13:59:13;5.00;;;2.20;;
74974;SDS011;68459;50.836;19.138;2023-08-31T14:02:17;3.72;;;2.30;;
74974;SDS011;68459;50.836;19.138;2023-08-31T14:05:22;4.28;;;2.22;;
74974;SDS011;68459;50.836;19.138;2023-08-31T14:08:25;3.80;;;2.03;;
74974;SDS011;68459;50.836;19.138;2023-08-31T14:11:29;3.40;;;2.20;;
74974;SDS011;68459;50.836;19.138;2023-08-31T14:14:33;4.13;;;2.58;;
74974;SDS011;68459;50.836;19.138;2023-08-31T14:17:38;2.85;;;1.83;;
74974;SDS011;68459;50.836;19.138;2023-08-31T14:20:44;2.97;;;1.80;;
74974;SDS011;68459;50.836;19.138;2023-08-31T14:23:48;2.80;;;1.60;;
74974;SDS011;68459;50.836;19.138;2023-08-31T14:26:57;3.00;;;1.70;;
74974;SDS011;68459;50.836;19.138;2023-08-31T14:30:01;3.40;;;2.00;;
74974;SDS011;68459;50.836;19.138;2023-08-31T14:33:05;3.53;;;2.30;;
74974;SDS011;68459;50.836;19.138;2023-08-31T14:36:10;2.92;;;2.00;;
74974;SDS011;68459;50.836;19.138;2023-08-31T14:39:15;3.93;;;2.00;;
74974;SDS011;68459;50.836;19.138;2023-08-31T14:42:20;3.13;;;2.00;;
74974;SDS011;68459;50.836;19.138;2023-08-31T14:45:24;3.03;;;1.92;;
74974;SDS011;68459;50.836;19.138;2023-08-31T14:48:29;3.40;;;1.70;;
74974;SDS011;68459;50.836;19.138;2023-08-31T14:51:35;2.50;;;1.88;;
74974;SDS011;68459;50.836;19.138;2023-08-31T14:54:39;2.70;;;1.80;;
74974;SDS011;68459;50.836;19.138;2023-08-31T14:57:43;3.38;;;1.75;;
74974;SDS011;68459;50.836;19.138;2023-08-31T15:00:47;2.72;;;1.45;;
74974;SDS011;68459;50.836;19.138;2023-08-31T15:03:51;3.10;;;1.50;;
74974;SDS011;68459;50.836;19.138;2023-08-31T15:06:56;2.13;;;1.45;;
74974;SDS011;68459;50.836;19.138;2023-08-31T15:10:00;2.70;;;1.80;;
74974;SDS011;68459;50.836;19.138;2023-08-31T15:13:05;3.08;;;1.67;;
74974;SDS011;68459;50.836;19.138;2023-08-31T15:16:09;2.65;;;1.92;;
74974;SDS011;68459;50.836;19.138;2023-08-31T15:19:13;4.10;;;1.98;;
74974;SDS011;68459;50.836;19.138;2023-08-31T15:22:18;3.60;;;1.63;;
74974;SDS011;68459;50.836;19.138;2023-08-31T15:25:22;3.43;;;1.70;;
74974;SDS011;68459;50.836;19.138;2023-08-31T15:28:26;2.28;;;1.27;;
74974;SDS011;68459;50.836;19.138;2023-08-31T15:31:30;2.33;;;1.35;;
74974;SDS011;68459;50.836;19.138;2023-08-31T15:34:34;2.55;;;1.38;;
74974;SDS011;68459;50.836;19.138;2023-08-31T15:37:39;3.78;;;1.48;;
74974;SDS011;68459;50.836;19.138;2023-08-31T15:40:45;3.23;;;1.97;;
74974;SDS011;68459;50.836;19.138;2023-08-31T15:43:52;2.40;;;1.40;;
74974;SDS011;68459;50.836;19.138;2023-08-31T15:46:56;2.08;;;1.25;;
74974;SDS011;68459;50.836;19.138;2023-08-31T15:50:00;3.15;;;1.30;;
74974;SDS011;68459;50.836;19.138;2023-08-31T15:53:05;2.83;;;1.30;;
74974;SDS011;68459;50.836;19.138;2023-08-31T15:56:09;3.13;;;1.50;;
74974;SDS011;68459;50.836;19.138;2023-08-31T15:59:13;2.40;;;1.30;;
74974;SDS011;68459;50.836;19.138;2023-08-31T16:02:17;2.97;;;1.58;;
74974;SDS011;68459;50.836;19.138;2023-08-31T16:05:21;2.88;;;1.60;;
74974;SDS011;68459;50.836;19.138;2023-08-31T16:08:27;2.53;;;1.70;;
74974;SDS011;68459;50.836;19.138;2023-08-31T16:11:31;2.03;;;1.27;;
74974;SDS011;68459;50.836;19.138;2023-08-31T16:14:35;2.40;;;1.48;;
74974;SDS011;68459;50.836;19.138;2023-08-31T16:17:38;3.65;;;2.50;;
74974;SDS011;68459;50.836;19.138;2023-08-31T16:20:44;3.00;;;1.58;;
74974;SDS011;68459;50.836;19.138;2023-08-31T16:23:49;4.20;;;2.00;;
74974;SDS011;68459;50.836;19.138;2023-08-31T16:27:01;2.13;;;1.50;;
74974;SDS011;68459;50.836;19.138;2023-08-31T16:30:05;2.17;;;1.50;;
74974;SDS011;68459;50.836;19.138;2023-08-31T16:33:12;2.55;;;1.40;;
74974;SDS011;68459;50.836;19.138;2023-08-31T16:36:15;3.60;;;1.70;;
74974;SDS011;68459;50.836;19.138;2023-08-31T16:39:21;3.30;;;1.70;;
74974;SDS011;68459;50.836;19.138;2023-08-31T16:42:24;2.53;;;1.60;;
74974;SDS011;68459;50.836;19.138;2023-08-31T16:45:28;3.58;;;2.10;;
74974;SDS011;68459;50.836;19.138;2023-08-31T16:48:32;3.45;;;1.77;;
74974;SDS011;68459;50.836;19.138;2023-08-31T16:51:36;2.67;;;1.80;;
74974;SDS011;68459;50.836;19.138;2023-08-31T16:54:41;3.75;;;1.80;;
74974;SDS011;68459;50.836;19.138;2023-08-31T16:57:45;2.40;;;1.40;;
74974;SDS011;68459;50.836;19.138;2023-08-31T17:00:50;3.10;;;1.70;;
74974;SDS011;68459;50.836;19.138;2023-08-31T17:03:53;3.30;;;2.00;;
74974;SDS011;68459;50.836;19.138;2023-08-31T17:06:57;3.95;;;2.10;;
74974;SDS011;68459;50.836;19.138;2023-08-31T17:10:02;2.67;;;1.70;;
74974;SDS011;68459;50.836;19.138;2023-08-31T17:13:07;3.13;;;1.90;;
74974;SDS011;68459;50.836;19.138;2023-08-31T17:16:11;2.58;;;1.80;;
74974;SDS011;68459;50.836;19.138;2023-08-31T17:19:15;3.35;;;1.80;;
74974;SDS011;68459;50.836;19.138;2023-08-31T17:22:19;3.97;;;1.83;;
74974;SDS011;68459;50.836;19.138;2023-08-31T17:25:24;4.65;;;2.20;;
74974;SDS011;68459;50.836;19.138;2023-08-31T17:28:28;3.93;;;1.80;;
74974;SDS011;68459;50.836;19.138;2023-08-31T17:31:32;3.28;;;1.90;;
74974;SDS011;68459;50.836;19.138;2023-08-31T17:34:35;3.50;;;1.88;;
74974;SDS011;68459;50.836;19.138;2023-08-31T17:37:39;7.63;;;5.00;;
74974;SDS011;68459;50.836;19.138;2023-08-31T17:40:44;7.10;;;4.03;;
74974;SDS011;68459;50.836;19.138;2023-08-31T17:43:50;5.03;;;2.00;;
74974;SDS011;68459;50.836;19.138;2023-08-31T17:46:54;4.60;;;2.03;;
74974;SDS011;68459;50.836;19.138;2023-08-31T17:49:58;3.30;;;1.92;;
74974;SDS011;68459;50.836;19.138;2023-08-31T17:53:02;4.32;;;2.45;;
74974;SDS011;68459;50.836;19.138;2023-08-31T17:56:08;4.93;;;2.60;;
74974;SDS011;68459;50.836;19.138;2023-08-31T17:59:12;4.60;;;2.13;;
74974;SDS011;68459;50.836;19.138;2023-08-31T18:02:19;3.55;;;2.38;;
74974;SDS011;68459;50.836;19.138;2023-08-31T18:05:23;5.05;;;2.05;;
74974;SDS011;68459;50.836;19.138;2023-08-31T18:08:27;4.38;;;2.90;;
74974;SDS011;68459;50.836;19.138;2023-08-31T18:11:32;7.20;;;3.60;;
74974;SDS011;68459;50.836;19.138;2023-08-31T18:14:36;3.63;;;2.40;;
74974;SDS011;68459;50.836;19.138;2023-08-31T18:17:43;4.10;;;2.50;;
74974;SDS011;68459;50.836;19.138;2023-08-31T18:20:47;4.55;;;2.42;;